There are multiple Weather-warnings   Click here for more information


Meteo18 Weather Cam more information Meteo18 Weather Cam


warning for Thunderstorms more information blitzortung!


Rain radar more information rain snow radar


Visit our other weather sites:

Template documentation
and downloads

And another site



Weather Underground History page Text

Daily Summary for March 4, 2017 Units:  Metric    English   Both
« Previous Day
Next Day »
Daily Weekly Monthly Yearly Custom
  High: Low: Average:
Temperature: 12.1 °C 5.4 °C 7.9 °C
Dew Point: 7.4 °C 3.6 °C 6 °C
Humidity: 96 % 65 % 88 %
Wind Speed: 22.5 km/h 0.0 km/h 8.1 km/h
Wind Gust: 53.1 km/h - -
Wind:- - SW
Pressure: 1003.9 hPa 992.4 hPa -
Precipitation: 20.3 mm    
Historical Graphs
 
 
Tabular Data for March 4, 2017
Time Temperature Dew Point Pressure Wind Wind Speed Wind Gust Humidity Rainfall Rate (Hourly)
00:02 12.1 °C 5.9 °C 997.2 hPa SE 9.7 km/h 17.7 km/h 66 % 0.0 mm
00:07 12.1 °C 5.7 °C 996.8 hPa SSE 11.3 km/h 24.1 km/h 65 % 0.0 mm
00:12 12.1 °C 5.9 °C 996.8 hPa SE 9.7 km/h 24.1 km/h 66 % 0.0 mm
00:17 12.0 °C 6.1 °C 997.2 hPa SE 9.7 km/h 24.1 km/h 67 % 0.0 mm
00:22 11.7 °C 6.2 °C 997.2 hPa SE 9.7 km/h 24.1 km/h 69 % 0.0 mm
00:32 11.1 °C 6.6 °C 997.5 hPa SE 8.0 km/h 25.7 km/h 74 % 0.5 mm
00:42 10.7 °C 6.4 °C 996.8 hPa SE 8.0 km/h 25.7 km/h 75 % 0.8 mm
00:47 10.7 °C 6.6 °C 997.2 hPa SSE 4.8 km/h 22.5 km/h 76 % 0.8 mm
00:52 10.4 °C 6.7 °C 997.2 hPa SSE 4.8 km/h 19.3 km/h 78 % 1.0 mm
00:57 10.4 °C 6.7 °C 996.8 hPa ESE 9.7 km/h 19.3 km/h 78 % 1.0 mm
01:02 10.5 °C 6.8 °C 996.8 hPa ESE 6.4 km/h 25.7 km/h 78 % 1.0 mm
01:07 10.4 °C 6.7 °C 996.8 hPa ESE 4.8 km/h 25.7 km/h 78 % 1.3 mm
01:12 10.3 °C 6.8 °C 996.5 hPa South 1.6 km/h 19.3 km/h 79 % 1.3 mm
01:17 10.2 °C 6.7 °C 996.5 hPa SE 3.2 km/h 11.3 km/h 79 % 1.3 mm
01:22 10.1 °C 6.8 °C 996.5 hPa ESE 6.4 km/h 12.9 km/h 80 % 1.3 mm
01:27 10.1 °C 6.8 °C 996.5 hPa ESE 3.2 km/h 12.9 km/h 80 % 1.0 mm
01:32 10.1 °C 6.6 °C 996.5 hPa ESE 8.0 km/h 12.9 km/h 79 % 0.5 mm
01:37 10.2 °C 6.5 °C 996.5 hPa South 3.2 km/h 14.5 km/h 78 % 0.5 mm
01:42 10.3 °C 6.4 °C 996.2 hPa SE 6.4 km/h 14.5 km/h 77 % 0.5 mm
01:47 10.4 °C 6.4 °C 996.2 hPa ESE 11.3 km/h 14.5 km/h 76 % 0.3 mm
01:52 10.6 °C 6.4 °C 996.2 hPa SE 9.7 km/h 14.5 km/h 75 % 0.3 mm
01:57 10.7 °C 6.1 °C 996.2 hPa ESE 6.4 km/h 14.5 km/h 73 % 0.3 mm
02:07 10.7 °C 6.3 °C 996.2 hPa SSE 4.8 km/h 17.7 km/h 74 % 0.0 mm
02:12 10.7 °C 6.3 °C 995.8 hPa SE 4.8 km/h 11.3 km/h 74 % 0.0 mm
02:17 10.7 °C 6.3 °C 995.8 hPa SSE 6.4 km/h 11.3 km/h 74 % 0.0 mm
02:22 10.6 °C 6.2 °C 995.8 hPa SE 9.7 km/h 9.7 km/h 74 % 0.3 mm
02:27 10.5 °C 6.4 °C 995.8 hPa SE 6.4 km/h 12.9 km/h 76 % 0.3 mm
02:32 10.4 °C 6.5 °C 995.8 hPa SE 6.4 km/h 12.9 km/h 77 % 0.3 mm
02:37 10.2 °C 6.5 °C 995.5 hPa SSE 4.8 km/h 12.9 km/h 78 % 0.5 mm
02:42 10.2 °C 6.7 °C 995.5 hPa SE 4.8 km/h 9.7 km/h 79 % 0.5 mm
02:47 10.1 °C 6.6 °C 995.5 hPa SSE 4.8 km/h 9.7 km/h 79 % 0.5 mm
02:52 10.0 °C 6.7 °C 995.5 hPa Calm   9.7 km/h 80 % 0.8 mm
02:57 9.9 °C 6.8 °C 995.1 hPa SSE 1.6 km/h 9.7 km/h 81 % 0.8 mm
03:02 9.9 °C 6.8 °C 995.1 hPa SE 6.4 km/h 12.9 km/h 81 % 1.0 mm
03:07 9.9 °C 6.8 °C 995.1 hPa SE 4.8 km/h 12.9 km/h 81 % 1.0 mm
03:12 9.8 °C 6.9 °C 995.1 hPa SSE 3.2 km/h 14.5 km/h 82 % 1.3 mm
03:17 9.7 °C 6.8 °C 995.1 hPa SE 6.4 km/h 14.5 km/h 82 % 1.5 mm
03:22 9.7 °C 6.8 °C 995.1 hPa South 6.4 km/h 14.5 km/h 82 % 1.5 mm
03:27 9.7 °C 7.0 °C 995.1 hPa SSW 9.7 km/h 17.7 km/h 83 % 1.5 mm
03:32 9.6 °C 7.0 °C 994.8 hPa SSE 9.7 km/h 17.7 km/h 84 % 1.5 mm
03:37 9.5 °C 7.1 °C 994.8 hPa SE 8.0 km/h 17.7 km/h 85 % 1.5 mm
03:42 9.4 °C 7.2 °C 994.8 hPa South 4.8 km/h 16.1 km/h 86 % 1.5 mm
03:47 9.4 °C 7.2 °C 994.8 hPa South 8.0 km/h 16.1 km/h 86 % 1.5 mm
03:52 9.4 °C 7.2 °C 994.8 hPa SE 4.8 km/h 16.1 km/h 86 % 1.5 mm
03:57 9.4 °C 7.2 °C 994.8 hPa SE 9.7 km/h 16.1 km/h 86 % 1.5 mm
04:02 9.3 °C 7.1 °C 994.5 hPa SSE 4.8 km/h 16.1 km/h 86 % 1.8 mm
04:07 9.3 °C 7.1 °C 994.8 hPa SE 11.3 km/h 16.1 km/h 86 % 1.5 mm
04:12 9.3 °C 7.2 °C 994.8 hPa SE 3.2 km/h 16.1 km/h 87 % 1.5 mm
04:17 9.2 °C 7.1 °C 994.5 hPa SSE 8.0 km/h 16.1 km/h 87 % 1.8 mm
04:22 9.2 °C 7.3 °C 994.5 hPa SE 6.4 km/h 16.1 km/h 88 % 1.8 mm
04:27 9.1 °C 7.2 °C 994.5 hPa SSE 4.8 km/h 14.5 km/h 88 % 2.0 mm
04:32 9.1 °C 7.2 °C 994.5 hPa SSE 9.7 km/h 16.1 km/h 88 % 1.8 mm
04:37 9.1 °C 7.4 °C 994.5 hPa SSW 4.8 km/h 16.1 km/h 89 % 1.8 mm
04:42 9.0 °C 7.3 °C 994.5 hPa SSE 4.8 km/h 16.1 km/h 89 % 1.8 mm
04:47 8.9 °C 7.2 °C 994.5 hPa South 4.8 km/h 16.1 km/h 89 % 1.8 mm
04:52 8.9 °C 7.2 °C 994.1 hPa SSE 4.8 km/h 16.1 km/h 89 % 1.8 mm
04:57 8.8 °C 7.2 °C 994.1 hPa South 3.2 km/h 11.3 km/h 90 % 2.0 mm
05:02 8.8 °C 7.2 °C 994.1 hPa SE 4.8 km/h 11.3 km/h 90 % 1.8 mm
05:07 8.8 °C 7.2 °C 994.1 hPa South 3.2 km/h 9.7 km/h 90 % 1.8 mm
05:12 8.7 °C 7.2 °C 994.1 hPa South 4.8 km/h 8.0 km/h 90 % 1.8 mm
05:17 8.7 °C 7.3 °C 994.1 hPa SE 1.6 km/h 8.0 km/h 91 % 1.5 mm
05:22 8.6 °C 7.2 °C 993.8 hPa SSE 1.6 km/h 8.0 km/h 91 % 1.5 mm
05:27 8.6 °C 7.2 °C 993.8 hPa SSW 1.6 km/h 8.0 km/h 91 % 1.5 mm
05:32 8.5 °C 7.1 °C 993.8 hPa SSE 3.2 km/h 6.4 km/h 91 % 1.5 mm
05:37 8.5 °C 7.3 °C 993.8 hPa SSE 1.6 km/h 4.8 km/h 92 % 1.5 mm
05:42 8.4 °C 7.2 °C 994.1 hPa SSE 3.2 km/h 4.8 km/h 92 % 1.5 mm
05:47 8.4 °C 7.2 °C 993.8 hPa SSW 3.2 km/h 4.8 km/h 92 % 1.3 mm
05:52 8.4 °C 7.2 °C 993.8 hPa WSW 3.2 km/h 4.8 km/h 92 % 1.3 mm
05:57 8.3 °C 7.2 °C 993.8 hPa South 1.6 km/h 4.8 km/h 93 % 1.3 mm
06:02 8.3 °C 7.2 °C 993.8 hPa SW 1.6 km/h 3.2 km/h 93 % 1.3 mm
06:07 8.2 °C 7.1 °C 993.8 hPa Calm   3.2 km/h 93 % 1.0 mm
06:12 8.2 °C 7.1 °C 993.5 hPa Calm   3.2 km/h 93 % 1.3 mm
06:17 8.1 °C 7.0 °C 993.5 hPa Calm   3.2 km/h 93 % 1.0 mm
06:22 8.1 °C 7.2 °C 993.5 hPa Calm   1.6 km/h 94 % 1.3 mm
06:27 8.1 °C 7.2 °C 993.5 hPa Calm   1.6 km/h 94 % 1.3 mm
06:32 8.1 °C 7.2 °C 993.5 hPa Calm   1.6 km/h 94 % 1.3 mm
06:37 8.0 °C 7.1 °C 993.5 hPa WSW 1.6 km/h 1.6 km/h 94 % 1.3 mm
06:42 7.9 °C 7.0 °C 993.5 hPa WSW 1.6 km/h 1.6 km/h 94 % 1.3 mm
06:47 7.9 °C 7.1 °C 993.5 hPa SW 1.6 km/h 1.6 km/h 95 % 1.3 mm
06:52 7.9 °C 7.1 °C 993.5 hPa Calm   3.2 km/h 95 % 1.5 mm
07:02 7.9 °C 7.1 °C 993.5 hPa Calm   3.2 km/h 95 % 1.5 mm
07:12 7.9 °C 7.1 °C 993.5 hPa Calm   1.6 km/h 95 % 1.5 mm
07:17 7.8 °C 7.0 °C 993.1 hPa Calm   1.6 km/h 95 % 1.8 mm
07:22 7.8 °C 7.0 °C 993.1 hPa Calm   1.6 km/h 95 % 1.8 mm
07:32 7.8 °C 7.0 °C 993.1 hPa Calm   1.6 km/h 95 % 1.8 mm
07:37 7.8 °C 7.0 °C 993.1 hPa Calm   1.6 km/h 95 % 1.8 mm
07:42 7.8 °C 7.2 °C 993.1 hPa South 1.6 km/h 3.2 km/h 96 % 2.0 mm
07:47 7.8 °C 7.2 °C 992.8 hPa SW 3.2 km/h 3.2 km/h 96 % 2.3 mm
07:52 7.8 °C 7.2 °C 992.8 hPa SW 3.2 km/h 3.2 km/h 96 % 2.0 mm
07:57 7.8 °C 7.2 °C 992.8 hPa SW 3.2 km/h 4.8 km/h 96 % 2.0 mm
08:02 7.8 °C 7.2 °C 992.8 hPa SW 4.8 km/h 4.8 km/h 96 % 2.0 mm
08:12 7.8 °C 7.2 °C 992.4 hPa WSW 1.6 km/h 4.8 km/h 96 % 2.0 mm
08:17 7.8 °C 7.2 °C 992.4 hPa WSW 3.2 km/h 4.8 km/h 96 % 2.3 mm
08:22 7.8 °C 7.2 °C 992.4 hPa WSW 4.8 km/h 6.4 km/h 96 % 2.0 mm
08:32 7.8 °C 7.2 °C 992.4 hPa WSW 3.2 km/h 6.4 km/h 96 % 2.0 mm
08:37 7.8 °C 7.2 °C 992.4 hPa WSW 9.7 km/h 9.7 km/h 96 % 1.8 mm
08:42 7.8 °C 7.2 °C 992.4 hPa SW 4.8 km/h 9.7 km/h 96 % 1.8 mm
08:52 7.7 °C 7.1 °C 992.8 hPa West 9.7 km/h 12.9 km/h 96 % 1.8 mm
08:57 7.7 °C 7.1 °C 992.8 hPa WSW 3.2 km/h 12.9 km/h 96 % 1.8 mm
09:02 7.6 °C 6.9 °C 992.8 hPa WSW 6.4 km/h 11.3 km/h 95 % 1.8 mm
09:07 7.6 °C 6.9 °C 992.8 hPa West 8.0 km/h 11.3 km/h 95 % 2.0 mm
09:12 7.6 °C 6.9 °C 992.8 hPa West 8.0 km/h 12.9 km/h 95 % 2.0 mm
09:17 7.6 °C 6.9 °C 992.8 hPa WSW 11.3 km/h 14.5 km/h 95 % 2.0 mm
09:22 7.6 °C 6.9 °C 993.1 hPa West 8.0 km/h 14.5 km/h 95 % 2.0 mm
09:32 7.6 °C 6.9 °C 993.1 hPa WSW 6.4 km/h 12.9 km/h 95 % 2.3 mm
09:42 7.6 °C 6.9 °C 993.1 hPa WSW 8.0 km/h 14.5 km/h 95 % 2.3 mm
09:47 7.6 °C 6.9 °C 992.8 hPa WSW 9.7 km/h 14.5 km/h 95 % 2.3 mm
09:52 7.6 °C 6.9 °C 992.8 hPa WSW 6.4 km/h 14.5 km/h 95 % 2.0 mm
09:57 7.6 °C 6.9 °C 993.1 hPa WSW 4.8 km/h 11.3 km/h 95 % 2.0 mm
10:02 7.6 °C 6.9 °C 993.1 hPa WSW 6.4 km/h 11.3 km/h 95 % 1.8 mm
10:07 7.6 °C 6.9 °C 993.1 hPa WSW 4.8 km/h 9.7 km/h 95 % 1.8 mm
10:12 7.6 °C 6.9 °C 993.1 hPa SSW 1.6 km/h 8.0 km/h 95 % 1.5 mm
10:17 7.6 °C 6.9 °C 993.1 hPa SSW 6.4 km/h 8.0 km/h 95 % 1.5 mm
10:22 7.6 °C 6.9 °C 993.1 hPa SW 6.4 km/h 9.7 km/h 95 % 1.5 mm
10:27 7.6 °C 6.9 °C 993.1 hPa WSW 6.4 km/h 9.7 km/h 95 % 1.5 mm
10:32 7.6 °C 6.9 °C 993.1 hPa WSW 3.2 km/h 9.7 km/h 95 % 1.5 mm
10:42 7.6 °C 6.9 °C 993.8 hPa South 9.7 km/h 11.3 km/h 95 % 1.5 mm
10:47 7.6 °C 6.9 °C 993.8 hPa SSW 9.7 km/h 11.3 km/h 95 % 1.3 mm
10:52 7.6 °C 6.9 °C 993.8 hPa SSW 4.8 km/h 12.9 km/h 95 % 1.3 mm
10:57 7.4 °C 6.5 °C 993.8 hPa SSW 1.6 km/h 12.9 km/h 94 % 1.5 mm
11:02 7.4 °C 6.5 °C 993.5 hPa WSW 4.8 km/h 11.3 km/h 94 % 1.5 mm
11:07 7.3 °C 6.4 °C 993.8 hPa SW 3.2 km/h 12.9 km/h 94 % 1.3 mm
11:12 7.4 °C 6.5 °C 993.5 hPa WSW 3.2 km/h 12.9 km/h 94 % 1.0 mm
11:22 7.3 °C 6.4 °C 993.5 hPa SSW 6.4 km/h 9.7 km/h 94 % 1.0 mm
11:27 7.2 °C 6.1 °C 993.8 hPa SSW 6.4 km/h 12.9 km/h 93 % 0.8 mm
11:32 7.2 °C 6.1 °C 993.8 hPa SSW 9.7 km/h 12.9 km/h 93 % 0.5 mm
11:37 7.2 °C 6.1 °C 993.8 hPa SSW 3.2 km/h 11.3 km/h 93 % 0.5 mm
11:42 7.2 °C 6.1 °C 994.1 hPa SE 3.2 km/h 9.7 km/h 93 % 0.5 mm
11:47 7.2 °C 6.1 °C 994.1 hPa SSW 4.8 km/h 9.7 km/h 93 % 0.5 mm
11:52 7.1 °C 6.0 °C 993.8 hPa SSW 6.4 km/h 12.9 km/h 93 % 0.5 mm
11:57 7.1 °C 5.9 °C 993.8 hPa SSW 4.8 km/h 12.9 km/h 92 % 0.5 mm
12:02 7.2 °C 6.1 °C 993.8 hPa SSW 8.0 km/h 12.9 km/h 93 % 0.5 mm
12:07 7.2 °C 6.0 °C 993.8 hPa WSW 12.9 km/h 12.9 km/h 92 % 0.5 mm
12:12 7.2 °C 6.0 °C 993.5 hPa WSW 12.9 km/h 14.5 km/h 92 % 0.3 mm
12:17 7.2 °C 6.0 °C 993.5 hPa WSW 8.0 km/h 16.1 km/h 92 % 0.3 mm
12:22 7.2 °C 6.1 °C 993.8 hPa SW 4.8 km/h 16.1 km/h 93 % 0.3 mm
12:27 7.3 °C 6.2 °C 993.8 hPa WSW 9.7 km/h 16.1 km/h 93 % 0.3 mm
12:32 7.3 °C 6.1 °C 993.5 hPa WSW 8.0 km/h 14.5 km/h 92 % 0.3 mm
12:42 7.4 °C 6.3 °C 993.5 hPa WSW 8.0 km/h 16.1 km/h 93 % 0.3 mm
12:47 7.3 °C 5.9 °C 993.8 hPa WSW 14.5 km/h 16.1 km/h 91 % 0.5 mm
12:52 7.2 °C 6.1 °C 993.8 hPa SW 11.3 km/h 20.9 km/h 93 % 0.5 mm
12:57 7.2 °C 6.1 °C 993.8 hPa SW 16.1 km/h 20.9 km/h 93 % 0.5 mm
13:02 7.1 °C 6.0 °C 993.8 hPa WSW 22.5 km/h 22.5 km/h 93 % 0.5 mm
13:07 7.1 °C 6.0 °C 993.8 hPa SW 8.0 km/h 22.5 km/h 93 % 0.5 mm
13:12 7.1 °C 6.2 °C 994.1 hPa SSW 9.7 km/h 22.5 km/h 94 % 0.8 mm
13:17 6.9 °C 5.8 °C 994.1 hPa SW 19.3 km/h 22.5 km/h 93 % 1.0 mm
13:22 6.8 °C 5.7 °C 994.1 hPa SW 9.7 km/h 22.5 km/h 93 % 1.5 mm
13:27 6.8 °C 5.7 °C 994.1 hPa SW 9.7 km/h 19.3 km/h 93 % 1.5 mm
13:32 6.7 °C 5.6 °C 994.1 hPa SW 11.3 km/h 19.3 km/h 93 % 1.8 mm
13:37 6.8 °C 5.7 °C 994.1 hPa SW 11.3 km/h 17.7 km/h 93 % 2.0 mm
13:42 6.8 °C 5.9 °C 994.1 hPa SW 16.1 km/h 25.7 km/h 94 % 2.3 mm
13:47 6.8 °C 5.7 °C 994.5 hPa SW 12.9 km/h 25.7 km/h 93 % 2.3 mm
13:52 6.7 °C 5.6 °C 994.5 hPa SW 9.7 km/h 25.7 km/h 93 % 2.3 mm
13:57 6.6 °C 5.4 °C 994.5 hPa SW 16.1 km/h 24.1 km/h 92 % 2.3 mm
14:02 6.5 °C 5.0 °C 994.5 hPa West 14.5 km/h 25.7 km/h 90 % 2.5 mm
14:12 6.4 °C 4.6 °C 994.8 hPa WNW 11.3 km/h 33.8 km/h 88 % 2.5 mm
14:17 6.3 °C 4.3 °C 994.8 hPa West 6.4 km/h 33.8 km/h 87 % 2.3 mm
14:22 6.3 °C 4.5 °C 994.8 hPa West 9.7 km/h 22.5 km/h 88 % 2.3 mm
14:32 6.4 °C 4.9 °C 994.5 hPa West 4.8 km/h 20.9 km/h 90 % 1.8 mm
14:37 6.5 °C 5.0 °C 994.5 hPa WNW 8.0 km/h 19.3 km/h 90 % 1.5 mm
14:42 6.6 °C 5.1 °C 994.5 hPa WSW 9.7 km/h 16.1 km/h 90 % 1.5 mm
14:47 6.7 °C 5.2 °C 994.5 hPa West 8.0 km/h 16.1 km/h 90 % 1.5 mm
14:52 6.8 °C 5.3 °C 994.8 hPa West 3.2 km/h 16.1 km/h 90 % 1.5 mm
14:57 6.9 °C 5.4 °C 994.8 hPa WNW 4.8 km/h 14.5 km/h 90 % 1.0 mm
15:02 6.9 °C 5.5 °C 994.8 hPa SW 6.4 km/h 14.5 km/h 91 % 0.8 mm
15:07 7.0 °C 5.6 °C 994.8 hPa West 8.0 km/h 17.7 km/h 91 % 0.5 mm
15:12 7.1 °C 5.7 °C 994.8 hPa West 8.0 km/h 17.7 km/h 91 % 0.5 mm
15:17 7.2 °C 6.0 °C 994.8 hPa SW 8.0 km/h 17.7 km/h 92 % 0.3 mm
15:22 7.3 °C 6.1 °C 995.1 hPa SW 4.8 km/h 14.5 km/h 92 % 0.3 mm
15:27 7.5 °C 6.3 °C 995.1 hPa WSW 6.4 km/h 14.5 km/h 92 % 0.3 mm
15:32 7.8 °C 6.7 °C 995.1 hPa West 9.7 km/h 14.5 km/h 93 % 0.3 mm
15:37 8.1 °C 6.7 °C 995.1 hPa SW 8.0 km/h 22.5 km/h 91 % 0.3 mm
15:42 8.2 °C 6.8 °C 995.1 hPa WNW 11.3 km/h 22.5 km/h 91 % 0.0 mm
15:52 8.3 °C 6.3 °C 995.5 hPa West 16.1 km/h 25.7 km/h 87 % 0.0 mm
15:57 8.4 °C 6.5 °C 995.5 hPa West 17.7 km/h 27.4 km/h 88 % 0.0 mm
16:02 8.3 °C 6.3 °C 995.5 hPa WSW 19.3 km/h 27.4 km/h 87 % 0.0 mm
16:07 8.3 °C 6.3 °C 995.5 hPa West 14.5 km/h 27.4 km/h 87 % 0.0 mm
16:12 8.3 °C 6.1 °C 995.8 hPa WSW 12.9 km/h 27.4 km/h 86 % 0.0 mm
16:17 8.3 °C 5.9 °C 995.8 hPa West 17.7 km/h 27.4 km/h 85 % 0.0 mm
16:22 8.3 °C 5.9 °C 995.8 hPa WSW 9.7 km/h 24.1 km/h 85 % 0.0 mm
16:27 8.2 °C 5.7 °C 996.2 hPa West 16.1 km/h 22.5 km/h 84 % 0.0 mm
16:32 8.1 °C 5.6 °C 996.2 hPa West 20.9 km/h 25.7 km/h 84 % 0.0 mm
16:42 8.1 °C 5.7 °C 996.2 hPa WSW 14.5 km/h 29.0 km/h 85 % 0.0 mm
16:47 8.1 °C 5.6 °C 996.5 hPa WSW 12.9 km/h 29.0 km/h 84 % 0.0 mm
16:52 8.1 °C 5.7 °C 996.5 hPa West 14.5 km/h 25.7 km/h 85 % 0.0 mm
16:57 8.1 °C 5.9 °C 996.5 hPa West 9.7 km/h 25.7 km/h 86 % 0.0 mm
17:02 8.1 °C 5.9 °C 996.8 hPa WSW 8.0 km/h 25.7 km/h 86 % 0.0 mm
17:07 8.1 °C 6.1 °C 996.8 hPa WSW 1.6 km/h 24.1 km/h 87 % 0.0 mm
17:12 8.1 °C 6.1 °C 996.8 hPa West 6.4 km/h 19.3 km/h 87 % 0.0 mm
17:17 8.1 °C 6.1 °C 996.8 hPa West 1.6 km/h 11.3 km/h 87 % 0.0 mm
17:22 8.1 °C 6.1 °C 997.2 hPa SW 6.4 km/h 8.0 km/h 87 % 0.0 mm
17:27 7.7 °C 5.5 °C 997.2 hPa WSW 11.3 km/h 53.1 km/h 86 % 0.0 mm
17:32 7.2 °C 4.7 °C 997.2 hPa WSW 9.7 km/h 53.1 km/h 84 % 0.0 mm
17:37 7.3 °C 4.8 °C 997.2 hPa West 8.0 km/h 53.1 km/h 84 % 0.3 mm
17:42 7.4 °C 4.9 °C 997.2 hPa WSW 9.7 km/h 24.1 km/h 84 % 0.3 mm
17:47 7.6 °C 5.2 °C 997.5 hPa WSW 11.3 km/h 16.1 km/h 85 % 0.3 mm
17:52 7.6 °C 5.4 °C 997.5 hPa SW 8.0 km/h 19.3 km/h 86 % 0.3 mm
17:57 7.7 °C 5.5 °C 997.9 hPa WSW 12.9 km/h 19.3 km/h 86 % 0.3 mm
18:02 7.7 °C 5.7 °C 997.9 hPa SW 6.4 km/h 19.3 km/h 87 % 0.3 mm
18:12 7.7 °C 5.7 °C 997.9 hPa WSW 12.9 km/h 19.3 km/h 87 % 0.3 mm
18:17 7.7 °C 5.7 °C 998.2 hPa WSW 4.8 km/h 19.3 km/h 87 % 0.3 mm
18:22 7.7 °C 5.7 °C 998.2 hPa WSW 4.8 km/h 19.3 km/h 87 % 0.3 mm
18:27 7.6 °C 5.6 °C 998.2 hPa SW 1.6 km/h 14.5 km/h 87 % 0.3 mm
18:32 7.6 °C 5.6 °C 998.5 hPa SW 8.0 km/h 12.9 km/h 87 % 0.0 mm
18:42 7.6 °C 5.6 °C 998.5 hPa SW 8.0 km/h 12.9 km/h 87 % 0.0 mm
18:47 7.6 °C 5.6 °C 998.9 hPa SW 8.0 km/h 14.5 km/h 87 % 0.0 mm
18:52 7.6 °C 5.6 °C 999.2 hPa SW 9.7 km/h 17.7 km/h 87 % 0.0 mm
18:57 7.7 °C 5.2 °C 999.2 hPa SW 8.0 km/h 20.9 km/h 84 % 0.0 mm
19:02 7.8 °C 5.1 °C 999.5 hPa West 9.7 km/h 20.9 km/h 83 % 0.0 mm
19:12 7.8 °C 4.7 °C 999.5 hPa WSW 16.1 km/h 22.5 km/h 81 % 0.0 mm
19:17 7.7 °C 4.6 °C 999.5 hPa SW 14.5 km/h 22.5 km/h 81 % 0.0 mm
19:22 7.7 °C 4.6 °C 999.9 hPa WSW 14.5 km/h 22.5 km/h 81 % 0.0 mm
19:27 7.7 °C 4.8 °C 999.9 hPa WSW 4.8 km/h 25.7 km/h 82 % 0.0 mm
19:32 7.7 °C 4.8 °C 999.9 hPa SW 6.4 km/h 25.7 km/h 82 % 0.0 mm
19:42 7.6 °C 4.7 °C 1000.2 hPa SSW 17.7 km/h 20.9 km/h 82 % 0.0 mm
19:47 7.5 °C 4.6 °C 1000.2 hPa SW 14.5 km/h 24.1 km/h 82 % 0.0 mm
19:52 7.4 °C 4.4 °C 1000.2 hPa WSW 20.9 km/h 24.1 km/h 81 % 0.0 mm
19:57 7.3 °C 4.3 °C 1000.6 hPa SW 17.7 km/h 25.7 km/h 81 % 0.0 mm
20:07 7.1 °C 4.2 °C 1000.6 hPa SSW 16.1 km/h 32.2 km/h 82 % 0.0 mm
20:12 6.9 °C 4.0 °C 1000.9 hPa West 11.3 km/h 32.2 km/h 82 % 0.0 mm
20:17 6.7 °C 3.7 °C 1000.9 hPa WSW 17.7 km/h 32.2 km/h 81 % 0.0 mm
20:22 6.6 °C 3.7 °C 1000.9 hPa WSW 8.0 km/h 29.0 km/h 82 % 0.0 mm
20:32 6.3 °C 3.6 °C 1001.2 hPa SSW 12.9 km/h 24.1 km/h 83 % 0.0 mm
20:37 6.2 °C 3.7 °C 1001.2 hPa SW 14.5 km/h 22.5 km/h 84 % 0.0 mm
20:42 6.2 °C 3.9 °C 1001.2 hPa WSW 4.8 km/h 22.5 km/h 85 % 0.0 mm
20:47 6.1 °C 3.9 °C 1001.6 hPa SW 11.3 km/h 22.5 km/h 86 % 0.0 mm
20:57 5.9 °C 3.7 °C 1001.6 hPa WNW 4.8 km/h 19.3 km/h 86 % 0.0 mm
21:02 6.0 °C 3.8 °C 1001.6 hPa SW 14.5 km/h 19.3 km/h 86 % 0.0 mm
21:07 6.0 °C 3.8 °C 1001.9 hPa SW 12.9 km/h 19.3 km/h 86 % 0.0 mm
21:12 6.0 °C 3.8 °C 1001.9 hPa SW 11.3 km/h 24.1 km/h 86 % 0.0 mm
21:17 6.0 °C 3.8 °C 1001.9 hPa SW 12.9 km/h 24.1 km/h 86 % 0.0 mm
21:22 6.1 °C 3.8 °C 1002.3 hPa SW 12.9 km/h 24.1 km/h 85 % 0.0 mm
21:27 6.1 °C 3.8 °C 1002.3 hPa SW 12.9 km/h 24.1 km/h 85 % 0.0 mm
21:32 6.1 °C 3.9 °C 1002.3 hPa WSW 14.5 km/h 24.1 km/h 86 % 0.0 mm
21:37 6.1 °C 3.9 °C 1002.3 hPa West 9.7 km/h 24.1 km/h 86 % 0.0 mm
21:42 6.1 °C 3.9 °C 1002.6 hPa SW 6.4 km/h 20.9 km/h 86 % 0.0 mm
21:47 6.1 °C 3.9 °C 1002.6 hPa WSW 12.9 km/h 20.9 km/h 86 % 0.0 mm
21:52 6.1 °C 4.1 °C 1002.6 hPa SW 19.3 km/h 20.9 km/h 87 % 0.0 mm
21:57 6.0 °C 4.0 °C 1002.6 hPa SW 17.7 km/h 19.3 km/h 87 % 0.0 mm
22:02 6.0 °C 4.2 °C 1002.6 hPa SW 16.1 km/h 22.5 km/h 88 % 0.0 mm
22:12 5.9 °C 4.1 °C 1002.9 hPa SSW 16.1 km/h 24.1 km/h 88 % 0.0 mm
22:17 5.8 °C 4.0 °C 1002.9 hPa SW 11.3 km/h 24.1 km/h 88 % 0.0 mm
22:22 5.9 °C 4.1 °C 1002.9 hPa SW 12.9 km/h 24.1 km/h 88 % 0.0 mm
22:27 5.9 °C 4.1 °C 1002.9 hPa SW 17.7 km/h 24.1 km/h 88 % 0.0 mm
22:32 5.9 °C 4.1 °C 1002.9 hPa SW 12.9 km/h 24.1 km/h 88 % 0.0 mm
22:37 5.8 °C 4.0 °C 1002.9 hPa SW 14.5 km/h 24.1 km/h 88 % 0.0 mm
22:42 5.8 °C 4.1 °C 1003.3 hPa South 4.8 km/h 25.7 km/h 89 % 0.0 mm
22:47 5.7 °C 4.0 °C 1003.3 hPa SW 9.7 km/h 25.7 km/h 89 % 0.0 mm
22:52 5.6 °C 3.9 °C 1003.3 hPa SW 8.0 km/h 25.7 km/h 89 % 0.0 mm
22:57 5.6 °C 4.1 °C 1003.3 hPa SW 11.3 km/h 24.1 km/h 90 % 0.0 mm
23:02 5.6 °C 4.1 °C 1003.3 hPa SW 16.1 km/h 24.1 km/h 90 % 0.0 mm
23:07 5.5 °C 4.0 °C 1003.6 hPa SW 14.5 km/h 24.1 km/h 90 % 0.0 mm
23:12 5.5 °C 4.0 °C 1003.6 hPa WSW 3.2 km/h 20.9 km/h 90 % 0.0 mm
23:17 5.5 °C 4.0 °C 1003.6 hPa SW 6.4 km/h 20.9 km/h 90 % 0.0 mm
23:22 5.5 °C 4.0 °C 1003.6 hPa WSW 12.9 km/h 19.3 km/h 90 % 0.0 mm
23:27 5.5 °C 4.0 °C 1003.6 hPa SW 19.3 km/h 19.3 km/h 90 % 0.0 mm
23:32 5.4 °C 3.9 °C 1003.6 hPa SW 17.7 km/h 20.9 km/h 90 % 0.0 mm
23:42 5.4 °C 3.9 °C 1003.9 hPa SW 12.9 km/h 24.1 km/h 90 % 0.0 mm
23:47 5.4 °C 3.9 °C 1003.9 hPa WSW 17.7 km/h 24.1 km/h 90 % 0.0 mm
23:52 5.4 °C 4.0 °C 1003.9 hPa SSW 12.9 km/h 25.7 km/h 91 % 0.0 mm
23:57 5.4 °C 4.0 °C 1003.9 hPa WSW 6.4 km/h 25.7 km/h 91 % 0.0 mm
Meteo18
Compliments of Weather Underground - 4 mb

Script developed by  Jim McMurry - jmcmurry@mwt.net Adapted for the template by  Wim van der Kuil - Leuven-Template.eu

You find our weather info also at:

European Weather Network

Weather Underground

Equipment we use:

Weather-station
Davis Vue

Weather-program
Meteohub

Weather-server
Raspberry PI 2 B+

Provider
1 and 1

Davis Vue

Meteohub

Raspberry PI 2 B+

1 and 1